Time;durP1;ratioP1;P1;durP2;ratioP2;P2;SDS_P1;SDS_P2;PMS_P1;PMS_P2;Temp;Humidity;BMP_temperature;BMP_pressure;BME280_temperature;BME280_humidity;BME280_pressure;Samples;Min_cycle;Max_cycle;Signal;HPM_P1;HPM_P2
2022/11/17 00:00:28;;;;;;;4.10;2.65;;;;;;;;;;5055636;28;20367;-83
2022/11/17 00:02:55;;;;;;;2.75;2.47;;;;;;;;;;5055987;28;20284;-83
2022/11/17 00:05:23;;;;;;;2.78;2.58;;;;;;;;;;5055782;28;20316;-83
2022/11/17 00:07:51;;;;;;;3.35;2.67;;;;;;;;;;5056031;28;20228;-83
2022/11/17 00:10:19;;;;;;;4.53;3.13;;;;;;;;;;5055817;28;20271;-84
2022/11/17 00:15:33;;;;;;;7.15;4.65;;;;;;;;;;5075650;28;20235;-83
2022/11/17 00:23:45;;;;;;;3.53;3.22;;;;;;;;;;5075693;28;20566;-83
2022/11/17 00:26:14;;;;;;;3.70;3.40;;;;;;;;;;5075772;28;20637;-83
2022/11/17 00:28:43;;;;;;;3.50;3.20;;;;;;;;;;5075424;28;20232;-83
2022/11/17 00:34:06;;;;;;;3.90;3.50;;;;;;;;;;5075625;28;20259;-83
2022/11/17 00:36:37;;;;;;;3.60;3.30;;;;;;;;;;5075544;28;20279;-84
2022/11/17 00:39:06;;;;;;;3.92;3.30;;;;;;;;;;5074945;28;20197;-83
2022/11/17 00:41:34;;;;;;;3.88;3.42;;;;;;;;;;5067154;28;20317;-83
2022/11/17 00:44:03;;;;;;;3.80;3.50;;;;;;;;;;5055440;28;20288;-84
2022/11/17 00:46:30;;;;;;;4.45;3.92;;;;;;;;;;5055222;28;20224;-83
2022/11/17 00:48:58;;;;;;;3.38;3.08;;;;;;;;;;5055784;28;20228;-83
2022/11/17 00:51:26;;;;;;;4.45;3.00;;;;;;;;;;5055790;28;20198;-83
2022/11/17 00:53:54;;;;;;;3.60;2.97;;;;;;;;;;5055722;28;20285;-84
2022/11/17 00:56:21;;;;;;;4.10;3.75;;;;;;;;;;5054923;28;20350;-83
2022/11/17 00:58:49;;;;;;;3.83;3.38;;;;;;;;;;5054981;28;20202;-82
2022/11/17 01:01:18;;;;;;;4.53;4.00;;;;;;;;;;5054829;28;20312;-83
2022/11/17 01:03:46;;;;;;;5.90;3.83;;;;;;;;;;5054387;28;20202;-85
2022/11/17 01:06:15;;;;;;;3.53;3.22;;;;;;;;;;5054609;28;20312;-83
2022/11/17 01:08:43;;;;;;;4.15;3.75;;;;;;;;;;5054544;28;20205;-82
2022/11/17 01:11:14;;;;;;;6.30;4.50;;;;;;;;;;5059438;28;20261;-83
2022/11/17 01:13:42;;;;;;;4.90;3.72;;;;;;;;;;5074854;28;20240;-83
2022/11/17 01:16:13;;;;;;;4.03;3.60;;;;;;;;;;5074396;28;20217;-82
2022/11/17 01:18:43;;;;;;;3.72;3.42;;;;;;;;;;5073919;28;20224;-83
2022/11/17 01:21:14;;;;;;;4.65;3.40;;;;;;;;;;5074098;28;20292;-81
2022/11/17 01:23:43;;;;;;;4.63;4.22;;;;;;;;;;5074106;28;20291;-83
2022/11/17 01:26:13;;;;;;;4.72;4.13;;;;;;;;;;5073902;28;20708;-82
2022/11/17 01:28:42;;;;;;;3.85;3.47;;;;;;;;;;5074300;28;20247;-83
2022/11/17 01:31:12;;;;;;;4.47;4.10;;;;;;;;;;5073801;28;20284;-83
2022/11/17 01:33:41;;;;;;;4.40;3.75;;;;;;;;;;5074550;28;20228;-84
2022/11/17 01:36:12;;;;;;;4.38;3.75;;;;;;;;;;5074028;28;20307;-84
2022/11/17 01:38:40;;;;;;;3.90;3.60;;;;;;;;;;5074215;28;20272;-84
2022/11/17 01:41:15;;;;;;;5.75;4.18;;;;;;;;;;5074163;28;20772;-84
2022/11/17 01:43:46;;;;;;;5.25;4.75;;;;;;;;;;5068496;28;20293;-83
2022/11/17 01:46:27;;;;;;;4.63;4.25;;;;;;;;;;5054228;28;20309;-84
2022/11/17 01:49:03;;;;;;;4.40;3.85;;;;;;;;;;5053695;28;20272;-83
2022/11/17 01:51:33;;;;;;;4.93;4.35;;;;;;;;;;5054480;28;20249;-83
2022/11/17 01:54:01;;;;;;;5.47;4.90;;;;;;;;;;5054407;28;20205;-84
2022/11/17 01:56:33;;;;;;;4.63;4.15;;;;;;;;;;5053942;28;20323;-84
2022/11/17 01:59:05;;;;;;;4.25;3.95;;;;;;;;;;5053708;28;20206;-84
2022/11/17 02:01:33;;;;;;;4.88;4.47;;;;;;;;;;5053749;28;20237;-84
2022/11/17 02:04:02;;;;;;;6.95;5.18;;;;;;;;;;5054542;28;20289;-85
2022/11/17 02:06:34;;;;;;;4.50;4.10;;;;;;;;;;5052972;28;20320;-85
2022/11/17 02:09:04;;;;;;;4.35;3.95;;;;;;;;;;5053552;28;20209;-85
2022/11/17 02:11:34;;;;;;;6.15;5.15;;;;;;;;;;5061463;28;20701;-84
2022/11/17 02:14:04;;;;;;;4.75;4.22;;;;;;;;;;5046285;28;20197;-85
2022/11/17 02:16:31;;;;;;;6.03;4.43;;;;;;;;;;5053648;28;20222;-84
2022/11/17 02:18:59;;;;;;;6.30;4.50;;;;;;;;;;5053512;28;20296;-85
2022/11/17 02:22:14;;;;;;;5.15;4.75;;;;;;;;;;5054383;28;20344;-85
2022/11/17 02:25:18;;;;;;;5.28;4.75;;;;;;;;;;5047058;28;20308;-83
2022/11/17 02:28:09;;;;;;;6.65;4.50;;;;;;;;;;5054468;28;20650;-84
2022/11/17 02:30:45;;;;;;;5.28;4.78;;;;;;;;;;5053999;28;20185;-85
2022/11/17 02:33:19;;;;;;;7.32;4.65;;;;;;;;;;5054989;28;20197;-85
2022/11/17 02:35:51;;;;;;;6.85;5.35;;;;;;;;;;5053756;28;20783;-85
2022/11/17 02:38:31;;;;;;;6.15;4.82;;;;;;;;;;5054699;28;20269;-84
2022/11/17 02:41:05;;;;;;;5.78;4.28;;;;;;;;;;5054030;28;20270;-83
2022/11/17 02:46:23;;;;;;;5.35;4.63;;;;;;;;;;5055062;28;20224;-84
2022/11/17 02:48:54;;;;;;;6.07;4.50;;;;;;;;;;5055590;28;20271;-84
2022/11/17 02:51:24;;;;;;;5.32;4.82;;;;;;;;;;5055215;28;20182;-84
2022/11/17 02:53:54;;;;;;;5.20;4.70;;;;;;;;;;5054627;28;20235;-84
2022/11/17 02:56:22;;;;;;;5.63;5.00;;;;;;;;;;5054843;28;20304;-84
2022/11/17 02:58:56;;;;;;;5.70;5.05;;;;;;;;;;5054752;28;20210;-83
2022/11/17 03:01:41;;;;;;;5.38;4.40;;;;;;;;;;5054608;28;20207;-84
2022/11/17 03:04:27;;;;;;;5.60;4.60;;;;;;;;;;5055111;28;20638;-85
2022/11/17 03:07:06;;;;;;;5.95;5.40;;;;;;;;;;5054247;28;20267;-84
2022/11/17 03:09:46;;;;;;;7.28;4.63;;;;;;;;;;5056121;28;20186;-84
2022/11/17 03:12:22;;;;;;;5.45;4.95;;;;;;;;;;5054725;28;20178;-83
2022/11/17 03:15:01;;;;;;;5.43;4.93;;;;;;;;;;5055098;28;20218;-84
2022/11/17 03:17:33;;;;;;;5.10;4.60;;;;;;;;;;5055052;28;20190;-85
2022/11/17 03:20:07;;;;;;;5.45;4.45;;;;;;;;;;5054398;28;20214;-84
2022/11/17 03:22:40;;;;;;;7.40;5.75;;;;;;;;;;5058800;28;20293;-84
2022/11/17 03:25:12;;;;;;;5.90;5.22;;;;;;;;;;5058807;28;20594;-84
2022/11/17 03:27:44;;;;;;;5.43;4.90;;;;;;;;;;5058131;28;20212;-84
2022/11/17 03:30:14;;;;;;;5.45;4.95;;;;;;;;;;5057996;28;20213;-84
2022/11/17 03:32:54;;;;;;;6.80;4.68;;;;;;;;;;5058130;28;20649;-84
2022/11/17 03:35:26;;;;;;;4.78;4.38;;;;;;;;;;5057337;28;20262;-84
2022/11/17 03:37:57;;;;;;;5.70;4.50;;;;;;;;;;5058959;28;20201;-85
2022/11/17 03:40:28;;;;;;;5.25;4.75;;;;;;;;;;5058558;28;20324;-84
2022/11/17 03:42:59;;;;;;;5.22;4.72;;;;;;;;;;5059098;28;20682;-85
2022/11/17 03:45:31;;;;;;;5.10;4.00;;;;;;;;;;5058084;28;20250;-85
2022/11/17 03:48:02;;;;;;;5.28;4.60;;;;;;;;;;5057545;28;20753;-85
2022/11/17 03:50:33;;;;;;;5.57;4.53;;;;;;;;;;5056956;28;20240;-84
2022/11/17 03:53:01;;;;;;;4.35;3.95;;;;;;;;;;5056655;28;20573;-84
2022/11/17 03:55:36;;;;;;;6.43;4.72;;;;;;;;;;5057370;28;20260;-85
2022/11/17 03:58:08;;;;;;;4.10;3.70;;;;;;;;;;5056180;28;20217;-85
2022/11/17 04:00:38;;;;;;;5.32;4.22;;;;;;;;;;5056670;28;20270;-84
2022/11/17 04:03:05;;;;;;;3.88;3.47;;;;;;;;;;5056541;28;20312;-85
2022/11/17 04:05:32;;;;;;;4.82;3.95;;;;;;;;;;5056134;28;20229;-84
2022/11/17 04:08:00;;;;;;;4.63;4.18;;;;;;;;;;5056194;28;20254;-84
2022/11/17 04:10:27;;;;;;;4.70;4.30;;;;;;;;;;5056007;28;20204;-85
2022/11/17 04:15:57;;;;;;;3.95;3.55;;;;;;;;;;5076088;28;20302;-84
2022/11/17 04:18:26;;;;;;;3.80;3.45;;;;;;;;;;5075846;28;20235;-84
2022/11/17 04:20:56;;;;;;;4.30;3.28;;;;;;;;;;5076112;28;20251;-85
2022/11/17 04:23:27;;;;;;;3.40;3.10;;;;;;;;;;5075822;28;20292;-84
2022/11/17 04:28:45;;;;;;;3.30;3.00;;;;;;;;;;5075690;28;20188;-83
2022/11/17 04:31:16;;;;;;;5.47;3.70;;;;;;;;;;5076510;28;20323;-85
2022/11/17 04:33:45;;;;;;;5.00;4.00;;;;;;;;;;5075258;28;20205;-85
2022/11/17 04:36:16;;;;;;;3.97;3.58;;;;;;;;;;5075828;28;20571;-84
2022/11/17 04:38:45;;;;;;;4.43;3.40;;;;;;;;;;5075489;28;20268;-84
2022/11/17 04:44:00;;;;;;;4.40;3.55;;;;;;;;;;5075477;28;20685;-84
2022/11/17 04:46:33;;;;;;;3.70;3.40;;;;;;;;;;5074980;28;20308;-85
2022/11/17 04:49:01;;;;;;;5.38;3.80;;;;;;;;;;5075329;28;20193;-85
2022/11/17 04:51:29;;;;;;;3.60;3.28;;;;;;;;;;5075250;28;20209;-85
2022/11/17 04:53:57;;;;;;;4.13;3.05;;;;;;;;;;5075778;28;20287;-85
2022/11/17 04:56:26;;;;;;;4.35;3.40;;;;;;;;;;5075051;28;20220;-85
2022/11/17 04:58:54;;;;;;;3.92;3.53;;;;;;;;;;5074529;28;20680;-86
2022/11/17 05:01:23;;;;;;;3.45;3.03;;;;;;;;;;5074445;28;20296;-85
2022/11/17 05:03:55;;;;;;;3.65;3.33;;;;;;;;;;5074477;28;20316;-86
2022/11/17 05:06:25;;;;;;;4.72;3.50;;;;;;;;;;5074384;28;20236;-85
2022/11/17 05:08:55;;;;;;;4.75;3.90;;;;;;;;;;5074294;28;20254;-86
2022/11/17 05:14:09;;;;;;;3.95;3.53;;;;;;;;;;5074143;28;20195;-85
2022/11/17 05:19:27;;;;;;;2.80;2.60;;;;;;;;;;5074015;28;20234;-86
2022/11/17 05:21:55;;;;;;;5.28;3.45;;;;;;;;;;5074048;28;20191;-86
2022/11/17 05:24:22;;;;;;;3.85;3.47;;;;;;;;;;5073154;28;20705;-86
2022/11/17 05:26:50;;;;;;;4.18;3.28;;;;;;;;;;5073483;28;20205;-85
2022/11/17 05:29:20;;;;;;;3.47;3.00;;;;;;;;;;5073753;28;20205;-86
2022/11/17 05:31:48;;;;;;;3.38;2.80;;;;;;;;;;5073596;28;20292;-84
2022/11/17 05:34:17;;;;;;;3.50;3.10;;;;;;;;;;5073134;28;20549;-86
2022/11/17 05:36:46;;;;;;;2.80;2.60;;;;;;;;;;5073637;28;20700;-85
2022/11/17 05:39:15;;;;;;;3.40;2.72;;;;;;;;;;5073646;28;20228;-87
2022/11/17 05:41:42;;;;;;;2.42;2.22;;;;;;;;;;5064472;28;20651;-87
2022/11/17 05:44:10;;;;;;;3.42;3.13;;;;;;;;;;5052742;28;20257;-89
2022/11/17 05:46:37;;;;;;;3.08;2.78;;;;;;;;;;5053921;28;20226;-87
2022/11/17 05:49:13;;;;;;;3.40;3.10;;;;;;;;;;5053584;28;20622;-85
2022/11/17 05:51:40;;;;;;;3.88;2.70;;;;;;;;;;5053578;28;20265;-85
2022/11/17 05:54:12;;;;;;;2.33;2.13;;;;;;;;;;5053621;28;20628;-86
2022/11/17 05:57:02;;;;;;;3.90;3.50;;;;;;;;;;5053593;28;20321;-89
2022/11/17 05:59:35;;;;;;;3.35;2.50;;;;;;;;;;5053634;28;20182;-89
2022/11/17 06:02:07;;;;;;;2.50;2.30;;;;;;;;;;5053593;28;20273;-88
2022/11/17 06:04:45;;;;;;;2.60;2.40;;;;;;;;;;5056935;28;20221;-88
2022/11/17 06:07:14;;;;;;;2.75;2.28;;;;;;;;;;5053368;28;20576;-87
2022/11/17 06:09:59;;;;;;;1.92;1.70;;;;;;;;;;5053241;28;20225;-87
2022/11/17 06:12:26;;;;;;;2.75;2.05;;;;;;;;;;5052993;28;20267;-86
2022/11/17 06:14:55;;;;;;;2.53;2.33;;;;;;;;;;5053121;28;20283;-88
2022/11/17 06:17:27;;;;;;;1.73;1.58;;;;;;;;;;5052943;28;20259;-87
2022/11/17 06:20:12;;;;;;;1.77;1.67;;;;;;;;;;5051846;28;20286;-87
2022/11/17 06:22:40;;;;;;;1.90;1.80;;;;;;;;;;5053115;28;20268;-87
2022/11/17 06:25:09;;;;;;;2.25;2.08;;;;;;;;;;5053596;28;20279;-86
2022/11/17 06:27:38;;;;;;;1.73;1.63;;;;;;;;;;5054735;28;20280;-86
2022/11/17 06:30:07;;;;;;;1.77;1.67;;;;;;;;;;5054262;28;20198;-86
2022/11/17 06:32:37;;;;;;;1.77;1.65;;;;;;;;;;5056416;28;20284;-86
2022/11/17 06:35:05;;;;;;;2.00;1.90;;;;;;;;;;5055242;28;20308;-85
2022/11/17 06:37:33;;;;;;;2.08;1.90;;;;;;;;;;5055033;28;20202;-86
2022/11/17 06:40:00;;;;;;;1.70;1.60;;;;;;;;;;5055163;28;20237;-86
2022/11/17 06:45:14;;;;;;;2.17;2.08;;;;;;;;;;5053809;28;20240;-85
2022/11/17 06:47:42;;;;;;;2.25;2.05;;;;;;;;;;5054594;28;20205;-85
2022/11/17 06:50:10;;;;;;;2.03;1.92;;;;;;;;;;5054207;28;20202;-85
2022/11/17 06:52:38;;;;;;;1.83;1.67;;;;;;;;;;5053416;28;20236;-86
2022/11/17 06:55:07;;;;;;;1.95;1.80;;;;;;;;;;5054908;28;20225;-85
2022/11/17 06:57:36;;;;;;;4.22;2.70;;;;;;;;;;5057794;28;20284;-85
2022/11/17 07:00:05;;;;;;;2.38;2.17;;;;;;;;;;5051242;28;20840;-86
2022/11/17 07:02:36;;;;;;;1.80;1.70;;;;;;;;;;5056881;28;20215;-86
2022/11/17 07:05:05;;;;;;;2.30;1.98;;;;;;;;;;5058475;28;20256;-85
2022/11/17 07:07:32;;;;;;;1.70;1.60;;;;;;;;;;5057514;28;20296;-85
2022/11/17 07:10:00;;;;;;;1.85;1.75;;;;;;;;;;5056793;28;20343;-86
2022/11/17 07:12:27;;;;;;;1.58;1.48;;;;;;;;;;5057489;28;20284;-87
2022/11/17 07:14:56;;;;;;;1.77;1.67;;;;;;;;;;5056758;28;20612;-86
2022/11/17 07:17:24;;;;;;;1.98;1.88;;;;;;;;;;5057503;28;20232;-85
2022/11/17 07:19:53;;;;;;;1.75;1.65;;;;;;;;;;5057995;28;20360;-86
2022/11/17 07:22:21;;;;;;;2.30;2.10;;;;;;;;;;5058348;28;20182;-86
2022/11/17 07:24:48;;;;;;;2.47;2.28;;;;;;;;;;5058052;28;20338;-86
2022/11/17 07:27:16;;;;;;;2.03;1.83;;;;;;;;;;5058095;28;20202;-85
2022/11/17 07:29:43;;;;;;;3.40;2.38;;;;;;;;;;5058611;28;20660;-85
2022/11/17 07:32:13;;;;;;;1.83;1.73;;;;;;;;;;5058938;28;20201;-85
2022/11/17 07:34:41;;;;;;;1.58;1.48;;;;;;;;;;5057548;28;20304;-86
2022/11/17 07:37:09;;;;;;;2.75;1.63;;;;;;;;;;5059455;28;20222;-85
2022/11/17 07:39:36;;;;;;;2.10;1.92;;;;;;;;;;5058812;28;20198;-86
2022/11/17 07:42:04;;;;;;;2.28;2.03;;;;;;;;;;5057570;28;20287;-88
2022/11/17 07:44:31;;;;;;;2.13;1.90;;;;;;;;;;5056199;28;20268;-87
2022/11/17 07:46:59;;;;;;;1.58;1.48;;;;;;;;;;5056873;28;20201;-87
2022/11/17 07:49:28;;;;;;;1.70;1.60;;;;;;;;;;5056166;28;20603;-87
2022/11/17 07:51:56;;;;;;;3.63;1.85;;;;;;;;;;5055783;28;20210;-87
2022/11/17 07:54:23;;;;;;;1.70;1.60;;;;;;;;;;5056146;28;20293;-86
2022/11/17 07:56:51;;;;;;;1.50;1.40;;;;;;;;;;5056117;28;20240;-87
2022/11/17 07:59:20;;;;;;;1.58;1.48;;;;;;;;;;5056186;28;20220;-88
2022/11/17 08:01:48;;;;;;;1.73;1.63;;;;;;;;;;5055900;28;20212;-86
2022/11/17 08:04:15;;;;;;;1.77;1.67;;;;;;;;;;5055895;28;20308;-87
2022/11/17 08:06:44;;;;;;;2.55;1.70;;;;;;;;;;5055056;28;20304;-87
2022/11/17 08:09:13;;;;;;;1.70;1.60;;;;;;;;;;5056323;28;20300;-87
2022/11/17 08:11:40;;;;;;;3.00;1.63;;;;;;;;;;5055851;28;20655;-87
2022/11/17 08:14:08;;;;;;;1.80;1.70;;;;;;;;;;5055766;28;20229;-87
2022/11/17 08:16:35;;;;;;;2.20;1.90;;;;;;;;;;5055402;28;20257;-87
2022/11/17 08:19:05;;;;;;;1.80;1.60;;;;;;;;;;5055581;28;20285;-87
2022/11/17 08:21:32;;;;;;;1.50;1.40;;;;;;;;;;5055432;28;20590;-88
2022/11/17 08:24:01;;;;;;;1.27;1.10;;;;;;;;;;5055224;28;20288;-87
2022/11/17 08:26:29;;;;;;;1.63;1.52;;;;;;;;;;5055240;28;20686;-87
2022/11/17 08:28:57;;;;;;;1.65;1.55;;;;;;;;;;5055249;28;20284;-86
2022/11/17 08:31:33;;;;;;;1.63;1.52;;;;;;;;;;5055128;28;20247;-87
2022/11/17 08:34:01;;;;;;;1.58;1.48;;;;;;;;;;5055237;28;20198;-86
2022/11/17 08:36:28;;;;;;;2.30;2.08;;;;;;;;;;5055066;28;20252;-88
2022/11/17 08:38:56;;;;;;;2.40;1.60;;;;;;;;;;5055227;28;20237;-88
2022/11/17 08:41:25;;;;;;;1.60;1.50;;;;;;;;;;5055051;28;20675;-88
2022/11/17 08:43:52;;;;;;;1.60;1.50;;;;;;;;;;5054955;28;20664;-89
2022/11/17 08:46:20;;;;;;;2.15;1.45;;;;;;;;;;5055088;28;20308;-87
2022/11/17 08:48:47;;;;;;;1.80;1.70;;;;;;;;;;5054852;28;20288;-88
2022/11/17 08:51:15;;;;;;;2.45;1.70;;;;;;;;;;5055035;28;20729;-88
2022/11/17 08:53:43;;;;;;;2.38;1.80;;;;;;;;;;5055545;28;20335;-87
2022/11/17 08:56:13;;;;;;;1.60;1.42;;;;;;;;;;5054974;28;20316;-90
2022/11/17 08:58:42;;;;;;;2.33;1.55;;;;;;;;;;5054828;28;20286;-87
2022/11/17 09:01:18;;;;;;;1.50;1.40;;;;;;;;;;5054797;28;20308;-87
2022/11/17 09:03:47;;;;;;;1.58;1.48;;;;;;;;;;5055131;28;20225;-88
2022/11/17 09:06:16;;;;;;;1.75;1.65;;;;;;;;;;5053812;28;20299;-88
2022/11/17 09:08:45;;;;;;;1.67;1.58;;;;;;;;;;5054737;28;20265;-87
2022/11/17 09:11:13;;;;;;;1.40;1.30;;;;;;;;;;5054310;28;20212;-87
2022/11/17 09:13:42;;;;;;;1.80;1.70;;;;;;;;;;5053792;28;20194;-87
2022/11/17 09:16:11;;;;;;;1.90;1.80;;;;;;;;;;5053923;28;20222;-87
2022/11/17 09:18:39;;;;;;;2.47;2.13;;;;;;;;;;5053728;28;20312;-88
2022/11/17 09:21:09;;;;;;;2.03;1.92;;;;;;;;;;5054376;28;20585;-87
2022/11/17 09:23:37;;;;;;;2.15;2.00;;;;;;;;;;5054101;28;20186;-87
2022/11/17 09:26:11;;;;;;;1.70;1.60;;;;;;;;;;5053580;28;20277;-87
2022/11/17 09:28:38;;;;;;;1.83;1.73;;;;;;;;;;5054241;28;20720;-88
2022/11/17 09:31:12;;;;;;;2.13;1.98;;;;;;;;;;5053990;28;20209;-87
2022/11/17 09:33:40;;;;;;;2.30;1.40;;;;;;;;;;5053875;28;20208;-88
2022/11/17 09:36:08;;;;;;;1.80;1.70;;;;;;;;;;5053541;28;20303;-88
2022/11/17 09:38:36;;;;;;;1.00;1.00;;;;;;;;;;5053845;28;20196;-89
2022/11/17 09:41:25;;;;;;;1.20;1.20;;;;;;;;;;5053657;28;20281;-89
2022/11/17 09:44:03;;;;;;;1.65;1.55;;;;;;;;;;5053710;28;20225;-89
2022/11/17 09:46:56;;;;;;;1.20;1.10;;;;;;;;;;5053952;28;20229;-87
2022/11/17 09:49:35;;;;;;;1.35;1.27;;;;;;;;;;5053743;28;20669;-88
2022/11/17 09:52:21;;;;;;;1.30;1.20;;;;;;;;;;5053607;28;20182;-87
2022/11/17 09:54:53;;;;;;;1.52;1.40;;;;;;;;;;5053747;28;20304;-86
2022/11/17 09:57:26;;;;;;;1.88;1.20;;;;;;;;;;5053756;28;20269;-86
2022/11/17 10:00:15;;;;;;;1.77;1.67;;;;;;;;;;5053370;28;20239;-88
2022/11/17 10:02:44;;;;;;;1.45;1.35;;;;;;;;;;5053779;28;20277;-88
2022/11/17 10:05:16;;;;;;;1.67;1.58;;;;;;;;;;5053794;28;20221;-88
2022/11/17 10:07:48;;;;;;;1.52;1.42;;;;;;;;;;5053168;28;20217;-85
2022/11/17 10:10:21;;;;;;;1.50;1.40;;;;;;;;;;5053580;28;20208;-86
2022/11/17 10:13:00;;;;;;;1.13;1.13;;;;;;;;;;5053661;28;20641;-87
2022/11/17 10:15:41;;;;;;;1.45;1.35;;;;;;;;;;5053292;28;20214;-87
2022/11/17 10:18:15;;;;;;;1.42;1.35;;;;;;;;;;5053635;28;20182;-85
2022/11/17 10:20:44;;;;;;;1.40;1.30;;;;;;;;;;5053178;28;20242;-86
2022/11/17 10:23:15;;;;;;;1.45;1.35;;;;;;;;;;5053429;28;20255;-86
2022/11/17 10:25:44;;;;;;;1.10;1.10;;;;;;;;;;5053138;28;20275;-86
2022/11/17 10:28:26;;;;;;;1.48;1.38;;;;;;;;;;5053114;28;20637;-87
2022/11/17 10:30:59;;;;;;;1.10;1.10;;;;;;;;;;5052958;28;20213;-87
2022/11/17 10:33:39;;;;;;;1.65;1.55;;;;;;;;;;5053212;28;20639;-87
2022/11/17 10:36:14;;;;;;;1.73;1.63;;;;;;;;;;5053001;28;20378;-87
2022/11/17 10:38:45;;;;;;;1.48;1.38;;;;;;;;;;5052967;28;20185;-87
2022/11/17 10:41:17;;;;;;;1.25;1.15;;;;;;;;;;5058601;28;20679;-86
2022/11/17 10:43:57;;;;;;;1.27;1.17;;;;;;;;;;5073313;28;20644;-87
2022/11/17 10:46:25;;;;;;;1.48;1.35;;;;;;;;;;5073290;28;20282;-87
2022/11/17 10:49:00;;;;;;;1.60;1.50;;;;;;;;;;5073143;28;20296;-88
2022/11/17 10:51:30;;;;;;;1.85;1.75;;;;;;;;;;5072668;28;20192;-88
2022/11/17 10:54:05;;;;;;;1.65;1.40;;;;;;;;;;5073023;28;20607;-86
2022/11/17 10:56:38;;;;;;;1.50;1.40;;;;;;;;;;5072941;28;20845;-87
2022/11/17 10:59:15;;;;;;;1.42;1.33;;;;;;;;;;5053438;28;20232;-87
2022/11/17 11:01:44;;;;;;;1.50;1.17;;;;;;;;;;5052479;28;20201;-87
2022/11/17 11:04:32;;;;;;;1.75;1.65;;;;;;;;;;5052421;28;20288;-87
2022/11/17 11:07:09;;;;;;;1.38;1.27;;;;;;;;;;5052036;28;20287;-86
2022/11/17 11:09:40;;;;;;;1.55;1.38;;;;;;;;;;5052451;28;20190;-87
2022/11/17 11:12:12;;;;;;;1.45;1.35;;;;;;;;;;5065541;28;20235;-86
2022/11/17 11:14:43;;;;;;;1.60;1.50;;;;;;;;;;5075176;28;20248;-87
2022/11/17 11:17:13;;;;;;;1.17;1.17;;;;;;;;;;5085609;22;20185;-87
2022/11/17 11:19:43;;;;;;;1.27;1.02;;;;;;;;;;5032458;28;20273;-88
2022/11/17 11:22:36;;;;;;;1.30;1.20;;;;;;;;;;5032460;28;20298;-87
2022/11/17 11:25:16;;;;;;;1.05;1.02;;;;;;;;;;5031037;28;20206;-87
2022/11/17 11:28:09;;;;;;;1.42;1.33;;;;;;;;;;5031563;28;20312;-88
2022/11/17 11:30:41;;;;;;;1.50;1.40;;;;;;;;;;5031227;28;20285;-88
2022/11/17 11:33:24;;;;;;;0.80;0.80;;;;;;;;;;5032943;28;20243;-87
2022/11/17 11:36:20;;;;;;;0.80;0.80;;;;;;;;;;5032952;28;20283;-87
2022/11/17 11:38:59;;;;;;;1.02;1.02;;;;;;;;;;5032703;28;20352;-87
2022/11/17 11:41:46;;;;;;;2.08;1.00;;;;;;;;;;5033203;28;20690;-87
2022/11/17 11:44:34;;;;;;;1.20;0.80;;;;;;;;;;5030108;28;20209;-87
2022/11/17 11:47:11;;;;;;;1.10;1.00;;;;;;;;;;5036005;28;20225;-87
2022/11/17 11:49:45;;;;;;;1.30;1.30;;;;;;;;;;5036483;28;20368;-87
2022/11/17 11:52:19;;;;;;;1.65;1.10;;;;;;;;;;5036490;28;20785;-87
2022/11/17 11:54:50;;;;;;;0.90;0.90;;;;;;;;;;5035596;28;20289;-86
2022/11/17 11:57:21;;;;;;;1.20;1.10;;;;;;;;;;5036611;28;20336;-86
2022/11/17 11:59:53;;;;;;;1.10;1.10;;;;;;;;;;5036391;28;20244;-87
2022/11/17 12:02:29;;;;;;;1.60;1.50;;;;;;;;;;5035780;28;20289;-86
2022/11/17 12:05:15;;;;;;;2.20;1.77;;;;;;;;;;5035419;28;20208;-86
2022/11/17 12:07:49;;;;;;;2.13;2.03;;;;;;;;;;5034812;28;20280;-87
2022/11/17 12:10:22;;;;;;;3.50;2.78;;;;;;;;;;5035867;28;20208;-86
2022/11/17 12:12:50;;;;;;;2.22;1.90;;;;;;;;;;5054235;28;20210;-87
2022/11/17 12:15:37;;;;;;;2.13;1.92;;;;;;;;;;5055876;28;20404;-87
2022/11/17 12:18:11;;;;;;;1.83;1.73;;;;;;;;;;5055464;28;20755;-86
2022/11/17 12:20:57;;;;;;;2.55;2.35;;;;;;;;;;5055693;28;20185;-86
2022/11/17 12:24:12;;;;;;;3.92;2.13;;;;;;;;;;5055361;28;20244;-88
2022/11/17 12:26:40;;;;;;;2.25;2.10;;;;;;;;;;5052698;28;20308;-86
2022/11/17 12:29:30;;;;;;;1.92;1.55;;;;;;;;;;5048735;28;20693;-86
2022/11/17 12:32:00;;;;;;;1.75;1.65;;;;;;;;;;5035834;28;20292;-86
2022/11/17 12:34:31;;;;;;;2.38;2.17;;;;;;;;;;5035624;28;20198;-85
2022/11/17 12:37:25;;;;;;;1.80;1.70;;;;;;;;;;5035244;28;20638;-86
2022/11/17 12:40:08;;;;;;;1.60;1.50;;;;;;;;;;5034829;28;20262;-86
2022/11/17 12:42:37;;;;;;;1.45;1.38;;;;;;;;;;5051162;28;20212;-86
2022/11/17 12:45:10;;;;;;;1.70;1.60;;;;;;;;;;5055461;28;20263;-86
2022/11/17 12:47:39;;;;;;;1.92;1.83;;;;;;;;;;5055470;28;20229;-86
2022/11/17 12:50:39;;;;;;;1.48;1.30;;;;;;;;;;5054686;28;20286;-87
2022/11/17 12:53:34;;;;;;;2.53;1.40;;;;;;;;;;5055081;28;20690;-87
2022/11/17 12:56:40;;;;;;;1.10;1.10;;;;;;;;;;5055367;28;20228;-87
2022/11/17 12:59:43;;;;;;;1.00;1.00;;;;;;;;;;5048538;28;20318;-88
2022/11/17 13:02:30;;;;;;;1.00;1.00;;;;;;;;;;5034368;28;20286;-88
2022/11/17 13:05:02;;;;;;;1.10;1.00;;;;;;;;;;5034885;28;20206;-86
2022/11/17 13:07:30;;;;;;;0.80;0.80;;;;;;;;;;5034492;28;20226;-86
2022/11/17 13:10:01;;;;;;;0.88;0.88;;;;;;;;;;5035365;28;20688;-86
2022/11/17 13:12:32;;;;;;;0.98;0.98;;;;;;;;;;5050369;28;20209;-87
2022/11/17 13:15:02;;;;;;;0.80;0.80;;;;;;;;;;5039279;28;20278;-88
2022/11/17 13:17:32;;;;;;;0.98;0.95;;;;;;;;;;5033472;28;20222;-89
2022/11/17 13:20:03;;;;;;;0.90;0.90;;;;;;;;;;5034220;28;20206;-88
2022/11/17 13:22:30;;;;;;;1.40;1.20;;;;;;;;;;5034419;28;20198;-87
2022/11/17 13:24:58;;;;;;;1.08;1.00;;;;;;;;;;5035158;28;20411;-87
2022/11/17 13:27:29;;;;;;;0.88;0.88;;;;;;;;;;5034308;28;20237;-87
2022/11/17 13:30:15;;;;;;;2.67;0.90;;;;;;;;;;5033973;28;20564;-87
2022/11/17 13:32:43;;;;;;;0.95;0.95;;;;;;;;;;5034815;28;20307;-86
2022/11/17 13:35:22;;;;;;;0.90;0.90;;;;;;;;;;5034310;28;20298;-87
2022/11/17 13:38:04;;;;;;;0.70;0.70;;;;;;;;;;5034315;28;20305;-88
2022/11/17 13:40:33;;;;;;;1.10;1.10;;;;;;;;;;5035161;28;20723;-88
2022/11/17 13:43:03;;;;;;;1.48;1.00;;;;;;;;;;5014915;28;20211;-86
2022/11/17 13:45:30;;;;;;;1.55;1.45;;;;;;;;;;5015202;28;20238;-88
2022/11/17 13:47:58;;;;;;;8.05;1.70;;;;;;;;;;5015015;28;20318;-86
2022/11/17 13:50:38;;;;;;;2.17;1.80;;;;;;;;;;5014837;28;20207;-86
2022/11/17 13:53:20;;;;;;;2.90;1.70;;;;;;;;;;5014965;28;20265;-87
2022/11/17 13:55:48;;;;;;;2.30;2.10;;;;;;;;;;5014790;28;20273;-87
2022/11/17 13:58:31;;;;;;;2.10;1.90;;;;;;;;;;5014844;28;20283;-87
2022/11/17 14:00:59;;;;;;;1.70;1.60;;;;;;;;;;5015080;28;20199;-86
2022/11/17 14:03:35;;;;;;;1.65;1.30;;;;;;;;;;5015115;28;20211;-86
2022/11/17 14:06:08;;;;;;;1.50;1.40;;;;;;;;;;5014624;28;20224;-86
2022/11/17 14:08:37;;;;;;;1.77;1.60;;;;;;;;;;5014146;28;20658;-86
2022/11/17 14:11:19;;;;;;;2.13;1.92;;;;;;;;;;5018313;28;20337;-86
2022/11/17 14:13:50;;;;;;;1.20;1.20;;;;;;;;;;5034342;28;20256;-87
2022/11/17 14:16:24;;;;;;;1.40;1.30;;;;;;;;;;5034452;28;20197;-86
2022/11/17 14:19:04;;;;;;;0.95;0.95;;;;;;;;;;5033800;28;20226;-85
2022/11/17 14:21:33;;;;;;;1.55;1.10;;;;;;;;;;5033879;28;20272;-88
2022/11/17 14:24:06;;;;;;;0.80;0.80;;;;;;;;;;5033969;28;20265;-86
2022/11/17 14:26:33;;;;;;;0.98;0.98;;;;;;;;;;5033928;28;20197;-87
2022/11/17 14:29:02;;;;;;;1.00;0.80;;;;;;;;;;5034179;28;20337;-85
2022/11/17 14:31:32;;;;;;;0.70;0.70;;;;;;;;;;5034721;28;20643;-86
2022/11/17 14:33:59;;;;;;;0.60;0.60;;;;;;;;;;5034425;28;20289;-86
2022/11/17 14:36:27;;;;;;;0.75;0.75;;;;;;;;;;5034073;28;20202;-85
2022/11/17 14:38:54;;;;;;;1.42;0.77;;;;;;;;;;5033606;28;20238;-86
2022/11/17 14:41:22;;;;;;;1.55;1.05;;;;;;;;;;5040679;28;20236;-85
2022/11/17 14:43:50;;;;;;;0.68;0.68;;;;;;;;;;5054307;28;20292;-85
2022/11/17 14:46:24;;;;;;;0.77;0.77;;;;;;;;;;5053940;28;20579;-86
2022/11/17 14:48:53;;;;;;;0.80;0.80;;;;;;;;;;5053655;28;20333;-83
2022/11/17 14:51:21;;;;;;;1.73;1.00;;;;;;;;;;5054559;28;20239;-85
2022/11/17 14:53:49;;;;;;;1.08;1.08;;;;;;;;;;5053706;28;20205;-85
2022/11/17 14:56:19;;;;;;;1.02;0.90;;;;;;;;;;5053926;28;20692;-85
2022/11/17 14:58:47;;;;;;;1.20;1.10;;;;;;;;;;5050522;28;20261;-85
2022/11/17 15:01:23;;;;;;;1.45;1.05;;;;;;;;;;5034281;28;20289;-85
2022/11/17 15:03:52;;;;;;;2.10;1.25;;;;;;;;;;5033312;28;20193;-84
2022/11/17 15:06:19;;;;;;;0.70;0.70;;;;;;;;;;5034129;28;20194;-84
2022/11/17 15:08:47;;;;;;;0.90;0.90;;;;;;;;;;5033992;28;20330;-85
2022/11/17 15:11:17;;;;;;;0.70;0.70;;;;;;;;;;5039216;28;20748;-84
2022/11/17 15:13:45;;;;;;;0.60;0.60;;;;;;;;;;5053788;28;20655;-84
2022/11/17 15:16:12;;;;;;;0.93;0.93;;;;;;;;;;5054900;28;20292;-84
2022/11/17 15:18:44;;;;;;;1.38;1.33;;;;;;;;;;5057461;28;20320;-84
2022/11/17 15:21:12;;;;;;;1.20;1.10;;;;;;;;;;5057670;28;20641;-84
2022/11/17 15:23:41;;;;;;;1.00;1.00;;;;;;;;;;5057133;28;20233;-84
2022/11/17 15:26:12;;;;;;;1.40;1.30;;;;;;;;;;5057738;28;20201;-84
2022/11/17 15:28:40;;;;;;;1.30;1.15;;;;;;;;;;5054181;28;20221;-84
2022/11/17 15:31:13;;;;;;;1.30;1.20;;;;;;;;;;5037896;28;20292;-84
2022/11/17 15:33:42;;;;;;;1.30;1.20;;;;;;;;;;5037969;28;20655;-84
2022/11/17 15:36:12;;;;;;;1.00;1.00;;;;;;;;;;5037290;28;20289;-85
2022/11/17 15:38:41;;;;;;;1.02;1.00;;;;;;;;;;5037227;28;20253;-85
2022/11/17 15:41:10;;;;;;;0.90;0.90;;;;;;;;;;5037348;28;20225;-86
2022/11/17 15:43:40;;;;;;;0.82;0.82;;;;;;;;;;5037381;28;20247;-85